Flight Track Log - Related Links

Times and Time Zones

All times are in EDT time to prevent confusion due to time zone crossing. See the DAL1283 flight status page for this flight to view local times or setup timezone preferences in your user account.

Time Position Orientation Groundspeed Altitude Reporting Facility
EDT Latitude Longitude Course Direction KTS MPH feet Rate Location/Type
Sun 07:27:29 AM 42.9500 -71.4167 202° Southwest 155 178 1,100  Level KA90
Sun 07:27:54 AM 42.9667 -71.4000 36° Northeast 194 223 1,600 2,667 Climbing KA90
Sun 07:30:00 AM 43.0744 -71.0189 71° East  Level FlightAware Approximate
Sun 07:30:02 AM 43.0425 -71.2639 53° Northeast 220 253 7,900  Level Boston Center
Sun 07:31:00 AM 43.0186 -70.9019 144° Southeast  Level FlightAware Approximate
Sun 07:31:02 AM 43.0519 -71.1758 82° East 252 290 10,400  Level Boston Center
Sun 07:32:00 AM 42.9164 -70.9039 202° Southwest  Level FlightAware Approximate
Sun 07:32:02 AM 43.0736 -71.0558 76° East 284 327 12,900  Level Boston Center
Sun 07:33:02 AM 43.0597 -70.9625 101° East 284 327 15,000 2,250 Climbing Boston Center
Sun 07:34:02 AM 42.9775 -70.8933 148° Southeast 289 333 17,400 1,950 Climbing Boston Center
Sun 07:35:02 AM 42.8886 -70.9297 197° South 289 333 18,900 1,700 Climbing Boston Center
Sun 07:36:02 AM 42.7953 -70.9772 200° South 319 367 20,800 1,800 Climbing Boston Center
Sun 07:37:02 AM 42.6981 -71.0247 200° South 353 406 22,500 1,500 Climbing Boston Center
Sun 07:38:02 AM 42.5922 -71.0778 200° South 386 444 23,800 1,500 Climbing Boston Center
Sun 07:39:02 AM 42.4844 -71.1253 198° South 407 468 25,500 1,500 Climbing Boston Center
Sun 07:40:02 AM 42.3792 -71.2033 209° Southwest 420 483 26,800 1,300 Climbing Boston Center
Sun 07:41:02 AM 42.3472 -71.3558 254° West 390 449 28,100 1,000 Climbing Boston Center
Sun 07:42:02 AM 42.3258 -71.5219 260° West 413 475 28,800 650 Climbing Boston Center
Sun 07:43:02 AM 42.2958 -71.6906 257° West 444 511 29,400 800 Climbing Boston Center
Sun 07:44:02 AM 42.2364 -71.8542 244° Southwest 469 540 30,400 1,000 Climbing Boston Center
Sun 07:45:02 AM 42.1725 -72.0169 242° Southwest 481 554 31,400 1,050 Climbing Boston Center
Sun 07:46:02 AM 42.1103 -72.1797 243° Southwest 487 560 32,500 1,000 Climbing Boston Center
Sun 07:47:02 AM 42.0461 -72.3422 242° Southwest 493 567 33,400 650 Climbing Boston Center
Sun 07:48:02 AM 41.9836 -72.4986 242° Southwest 493 567 33,800 300 Climbing Boston Center
Sun 07:49:02 AM 41.9292 -72.6411 243° Southwest 487 560 34,000 100 Climbing Boston Center
Sun 07:50:02 AM 41.8664 -72.8025 242° Southwest 487 560 34,000  Level Boston Center
Sun 07:51:02 AM 41.7925 -72.9831 241° Southwest 499 574 34,000  Level Boston Center
Sun 07:52:02 AM 41.7272 -73.1439 242° Southwest 499 574 34,000  Level Boston Center
Sun 07:53:02 AM 41.6700 -73.2850 242° Southwest 493 567 34,000  Level Boston Center
Sun 07:54:41 AM 41.5275 -73.5175 231° Southwest 485 558 34,000 -37 Level New York Center
Sun 07:55:43 AM 41.4389 -73.6547 229° Southwest 485 558 33,900  Descending New York Center
Sun 07:56:41 AM 41.3522 -73.7864 229° Southwest 490 564 34,000  Climbing New York Center
Sun 07:57:41 AM 41.2633 -73.9178 228° Southwest 490 564 33,900  Descending New York Center
Sun 07:58:42 AM 41.1767 -74.0458 228° Southwest 485 558 34,000 49 Climbing New York Center
Sun 07:59:43 AM 41.0894 -74.1792 229° Southwest 479 551 34,000  Level New York Center
Sun 08:00:41 AM 41.0175 -74.2939 230° Southwest 474 545 34,000  Level New York Center
Sun 08:01:41 AM 40.9386 -74.4217 231° Southwest 469 540 34,000 -793 Level New York Center
Sun 08:02:42 AM 40.8572 -74.5572 232° Southwest 469 540 32,400 -1,967 Descending New York Center
Sun 08:03:43 AM 40.7714 -74.6922 230° Southwest 475 547 30,000 -1,210 Descending New York Center
Sun 08:04:41 AM 40.6836 -74.8294 230° Southwest 488 562 30,000  Level New York Center
Sun 08:05:42 AM 40.5953 -74.9717 231° Southwest 500 575 30,000  Level New York Center
Sun 08:06:42 AM 40.5067 -75.1139 231° Southwest 505 581 30,000  Level New York Center
Sun 08:07:44 AM 40.4225 -75.2475 230° Southwest 505 581 30,000  Level New York Center
Sun 08:08:42 AM 40.3361 -75.3836 230° Southwest 500 575 30,000  Level New York Center
Sun 08:09:43 AM 40.2514 -75.5192 231° Southwest 495 570 30,000  Level New York Center
Sun 08:10:42 AM 40.1750 -75.6553 234° Southwest 495 570 30,000  Level New York Center
Sun 08:11:43 AM 40.1022 -75.7994 237° Southwest 480 552 30,000  Level New York Center
Sun 08:12:42 AM 40.0292 -75.9433 236° Southwest 472 543 30,000  Level New York Center
Sun 08:14:39 AM 39.8892 -76.2108 236° Southwest 475 547 30,000 -137 Level Washington Center
Sun 08:15:37 AM 39.8031 -76.3422 230° Southwest 470 541 29,600 -807 Descending Washington Center
Sun 08:16:38 AM 39.7189 -76.4708 230° Southwest 475 547 28,400 -793 Descending Washington Center
Sun 08:17:38 AM 39.6178 -76.6125 227° Southwest 480 552 28,000 -202 Descending Washington Center
Sun 08:18:37 AM 39.5311 -76.7431 229° Southwest 480 552 28,000  Level Washington Center
Sun 08:19:38 AM 39.4464 -76.8708 229° Southwest 480 552 28,000  Level Washington Center
Sun 08:20:39 AM 39.3636 -76.9983 230° Southwest 480 552 28,000  Level Washington Center
Sun 08:21:37 AM 39.2767 -77.1253 229° Southwest 480 552 28,000  Level Washington Center
Sun 08:22:38 AM 39.1917 -77.2519 229° Southwest 480 552 28,000  Level Washington Center
Sun 08:23:39 AM 39.1064 -77.3811 230° Southwest 480 552 28,000  Level Washington Center
Sun 08:24:37 AM 39.0211 -77.5047 228° Southwest 480 552 28,000  Level Washington Center
Sun 08:25:37 AM 38.9442 -77.6172 229° Southwest 480 552 28,000  Level Washington Center
Sun 08:26:37 AM 38.8544 -77.7536 230° Southwest 475 547 28,000  Level Washington Center
Sun 08:27:37 AM 38.7753 -77.8656 228° Southwest 475 547 28,000  Level Washington Center
Sun 08:28:38 AM 38.6894 -77.9908 229° Southwest 475 547 28,000  Level Washington Center
Sun 08:29:37 AM 38.6033 -78.1128 228° Southwest 475 547 28,000  Level Washington Center
Sun 08:30:37 AM 38.5194 -78.2347 229° Southwest 475 547 28,000  Level Washington Center
Sun 08:31:37 AM 38.4333 -78.3561 228° Southwest 475 547 28,000  Level Washington Center
Sun 08:32:38 AM 38.3492 -78.4775 229° Southwest 475 547 28,000  Level Washington Center
Sun 08:33:39 AM 38.2692 -78.5961 229° Southwest 469 540 28,000  Level Washington Center
Sun 08:34:38 AM 38.1761 -78.7269 228° Southwest 464 534 28,000  Level Washington Center
Sun 08:35:38 AM 38.0917 -78.8475 228° Southwest 459 528 28,000  Level Washington Center
Sun 08:36:37 AM 38.0069 -78.9650 228° Southwest 459 528 28,000  Level Washington Center
Sun 08:37:37 AM 37.9222 -79.0825 228° Southwest 453 521 28,000  Level Washington Center
Sun 08:38:38 AM 37.8483 -79.1869 228° Southwest 453 521 28,000  Level Washington Center
Sun 08:39:39 AM 37.7633 -79.3008 227° Southwest 453 521 28,000  Level Washington Center
Sun 08:40:39 AM 37.6764 -79.4175 227° Southwest 458 527 28,000  Level Washington Center
Sun 08:41:37 AM 37.5844 -79.5464 228° Southwest 463 533 28,000  Level Washington Center
Sun 08:42:37 AM 37.5058 -79.6522 227° Southwest 457 526 28,000  Level Washington Center
Sun 08:43:37 AM 37.4203 -79.7733 228° Southwest 457 526 28,000  Level Washington Center
Sun 08:44:39 AM 37.3369 -79.8889 228° Southwest 457 526 28,000  Level Washington Center
Sun 08:46:34 AM 37.1736 -80.1083 227° Southwest 461 531 28,000  Level Atlanta Center
Sun 08:47:34 AM 37.0894 -80.2219 227° Southwest 456 525 28,000  Level Atlanta Center
Sun 08:48:34 AM 37.0056 -80.3350 227° Southwest 450 518 28,000  Level Atlanta Center
Sun 08:49:34 AM 36.9133 -80.4614 228° Southwest 450 518 28,000  Level Atlanta Center
Sun 08:50:34 AM 36.8289 -80.5714 226° Southwest 450 518 28,000  Level Atlanta Center
Sun 08:51:33 AM 36.7625 -80.6600 227° Southwest 445 512 28,000  Level Atlanta Center
Sun 08:52:33 AM 36.6719 -80.7778 226° Southwest 432 497 28,000  Level Atlanta Center
Sun 08:53:33 AM 36.5872 -80.8897 227° Southwest 439 505 28,000 -500 Level Atlanta Center
Sun 08:54:33 AM 36.4986 -81.0094 227° Southwest 434 499 27,000 -600 Descending Atlanta Center
Sun 08:55:33 AM 36.4136 -81.1208 227° Southwest 440 506 26,800 -500 Descending Atlanta Center
Sun 08:56:33 AM 36.3286 -81.2297 226° Southwest 440 506 26,000 -650 Descending Atlanta Center
Sun 08:57:33 AM 36.2433 -81.3408 226° Southwest 440 506 25,500 -950 Descending Atlanta Center
Sun 08:58:33 AM 36.1664 -81.4436 227° Southwest 419 482 24,100 -750 Descending Atlanta Center
Sun 08:59:33 AM 36.0853 -81.5489 226° Southwest 419 482 24,000 -50 Descending Atlanta Center
Sun 09:00:33 AM 36.0081 -81.6514 227° Southwest 414 476 24,000  Level Atlanta Center
Sun 09:01:33 AM 35.9325 -81.7486 226° Southwest 400 460 24,000  Level Atlanta Center
Sun 09:02:33 AM 35.8553 -81.8481 226° Southwest 400 460 24,000  Level Atlanta Center
Sun 09:03:33 AM 35.7797 -81.9450 226° Southwest 400 460 24,000  Level Atlanta Center
Sun 09:04:33 AM 35.7019 -82.0414 225° Southwest 405 466 24,000  Level Atlanta Center
Sun 09:05:33 AM 35.6283 -82.1328 225° Southwest 392 451 24,000  Level Atlanta Center
Sun 09:06:33 AM 35.5586 -82.2108 222° Southwest 367 422 24,000  Level Atlanta Center
Sun 09:07:33 AM 35.4931 -82.2889 224° Southwest 339 390 24,000  Level Atlanta Center
Sun 09:08:33 AM 35.4356 -82.3539 223° Southwest 323 372 24,000  Level Atlanta Center
Sun 09:09:33 AM 35.3636 -82.4344 222° Southwest 336 387 24,000  Level Atlanta Center
Sun 09:10:33 AM 35.2853 -82.5250 223° Southwest 377 434 24,000  Level Atlanta Center
Sun 09:11:33 AM 35.2050 -82.6128 222° Southwest 389 448 24,000  Level Atlanta Center
Sun 09:12:33 AM 35.1267 -82.7031 223° Southwest 389 448 24,000  Level Atlanta Center
Sun 09:13:33 AM 35.0464 -82.7881 221° Southwest 389 448 24,000 -350 Level Atlanta Center
Sun 09:14:33 AM 34.9639 -82.8806 223° Southwest 389 448 23,300 -1,000 Descending Atlanta Center
Sun 09:15:33 AM 34.8831 -82.9678 222° Southwest 389 448 22,000 -650 Descending Atlanta Center
Sun 09:16:33 AM 34.8025 -83.0572 222° Southwest 389 448 22,000  Level Atlanta Center
Sun 09:17:33 AM 34.7219 -83.1467 222° Southwest 395 455 22,000  Level Atlanta Center
Sun 09:18:33 AM 34.6347 -83.2386 221° Southwest 390 449 22,000  Level Atlanta Center
Sun 09:19:33 AM 34.5561 -83.3300 224° Southwest 390 449 22,000  Level Atlanta Center
Sun 09:20:33 AM 34.4731 -83.4239 223° Southwest 403 464 22,000 -1,350 Level Atlanta Center
Sun 09:21:33 AM 34.3922 -83.5103 221° Southwest 403 464 19,300 -2,600 Descending Atlanta Center
Sun 09:22:33 AM 34.3172 -83.5961 223° Southwest 387 445 16,800 -2,500 Descending Atlanta Center
Sun 09:23:33 AM 34.2425 -83.6769 222° Southwest 366 421 14,300 -2,400 Descending Atlanta Center
Sun 09:24:33 AM 34.1717 -83.7525 221° Southwest 361 415 12,000 -1,150 Descending Atlanta Center
Sun 09:25:33 AM 34.1092 -83.8206 222° Southwest 326 375 12,000 -200 Level Atlanta Center
Sun 09:26:33 AM 34.0572 -83.8758 221° Southwest 298 343 11,600 -950 Descending Atlanta Center
Sun 09:27:33 AM 34.0031 -83.9361 223° Southwest 274 315 10,100 -1,920 Descending Atlanta Center
Sun 09:27:48 AM 33.9833 -83.9500 210° Southwest 266 306 9,200 -880 Descending Atlanta TRACON
Sun 09:28:48 AM 33.9000 -83.9500 180° South 275 316 9,000 -114 Descending Atlanta TRACON
Sun 09:29:33 AM 33.8611 -83.9589 191° South 259 298 9,000  Level Atlanta Center
Sun 09:30:33 AM 33.7922 -83.9639 183° South 254 292 9,000 -600 Level Atlanta Center
Sun 09:31:33 AM 33.7192 -83.9689 183° South 254 292 7,800 -1,050 Descending Atlanta Center
Sun 09:32:33 AM 33.6503 -83.9789 187° South 254 292 6,900 -800 Descending Atlanta Center
Sun 09:33:33 AM 33.6294 -84.0364 246° West 186 214 6,200 -585 Descending Atlanta Center
Sun 09:35:48 AM 33.6333 -84.1833 272° West 192 221 5,000 -708 Descending Atlanta TRACON
Sun 09:36:48 AM 33.6333 -84.2333 270° West 191 220 3,900 -1,050 Descending Atlanta TRACON
Sun 09:37:48 AM 33.6333 -84.3000 270° West 181 208 2,900 -1,000 Descending Atlanta TRACON

Login

Don't have an account? Register now (free) for customized features, flight alerts, and more!